sensor_id;sensor_type;location;lat;lon;timestamp;pressure;altitude;pressure_sealevel;temperature;humidity
65832;BME280;52593;42.648;23.332;2023-11-25T00:01:46;92275.38;;;12.89;63.50
65832;BME280;52593;42.648;23.332;2023-11-25T00:04:12;92274.06;;;12.91;62.55
65832;BME280;52593;42.648;23.332;2023-11-25T00:06:37;92272.38;;;12.85;63.07
65832;BME280;52593;42.648;23.332;2023-11-25T00:09:03;92272.13;;;12.87;64.17
65832;BME280;52593;42.648;23.332;2023-11-25T00:11:28;92285.75;;;12.80;64.16
65832;BME280;52593;42.648;23.332;2023-11-25T00:13:54;92271.97;;;12.71;65.06
65832;BME280;52593;42.648;23.332;2023-11-25T00:16:19;92270.34;;;12.70;65.56
65832;BME280;52593;42.648;23.332;2023-11-25T00:18:45;92259.41;;;12.77;65.10
65832;BME280;52593;42.648;23.332;2023-11-25T00:21:10;92258.34;;;12.78;65.20
65832;BME280;52593;42.648;23.332;2023-11-25T00:23:36;92240.88;;;12.75;65.42
65832;BME280;52593;42.648;23.332;2023-11-25T00:26:02;92254.25;;;12.70;65.50
65832;BME280;52593;42.648;23.332;2023-11-25T00:28:29;92246.47;;;12.69;65.51
65832;BME280;52593;42.648;23.332;2023-11-25T00:30:54;92235.44;;;12.65;65.02
65832;BME280;52593;42.648;23.332;2023-11-25T00:33:20;92229.56;;;12.68;65.22
65832;BME280;52593;42.648;23.332;2023-11-25T00:35:45;92224.78;;;12.75;64.32
65832;BME280;52593;42.648;23.332;2023-11-25T00:38:11;92226.19;;;12.83;64.23
65832;BME280;52593;42.648;23.332;2023-11-25T00:40:36;92225.44;;;12.88;64.56
65832;BME280;52593;42.648;23.332;2023-11-25T00:43:02;92216.53;;;12.82;64.93
65832;BME280;52593;42.648;23.332;2023-11-25T00:45:27;92221.28;;;12.75;66.10
65832;BME280;52593;42.648;23.332;2023-11-25T00:47:53;92213.25;;;12.75;65.58
65832;BME280;52593;42.648;23.332;2023-11-25T00:50:21;92211.94;;;12.77;65.19
65832;BME280;52593;42.648;23.332;2023-11-25T00:52:47;92208.13;;;12.73;66.22
65832;BME280;52593;42.648;23.332;2023-11-25T00:55:12;92222.16;;;12.80;67.22
65832;BME280;52593;42.648;23.332;2023-11-25T00:57:38;92208.09;;;12.68;66.92
65832;BME280;52593;42.648;23.332;2023-11-25T01:00:04;92192.81;;;12.69;67.17
65832;BME280;52593;42.648;23.332;2023-11-25T01:02:30;92181.06;;;12.47;69.58
65832;BME280;52593;42.648;23.332;2023-11-25T01:04:56;92179.59;;;12.35;72.03
65832;BME280;52593;42.648;23.332;2023-11-25T01:07:21;92210.59;;;12.25;71.77
65832;BME280;52593;42.648;23.332;2023-11-25T01:09:47;92202.19;;;12.17;71.24
65832;BME280;52593;42.648;23.332;2023-11-25T01:12:13;92195.19;;;12.16;72.74
65832;BME280;52593;42.648;23.332;2023-11-25T01:14:38;92187.91;;;12.11;74.01
65832;BME280;52593;42.648;23.332;2023-11-25T01:17:04;92195.69;;;12.12;75.17
65832;BME280;52593;42.648;23.332;2023-11-25T01:19:29;92169.34;;;12.04;75.73
65832;BME280;52593;42.648;23.332;2023-11-25T01:21:55;92167.50;;;11.88;77.37
65832;BME280;52593;42.648;23.332;2023-11-25T01:24:20;92167.88;;;11.74;78.45
65832;BME280;52593;42.648;23.332;2023-11-25T01:26:46;92146.91;;;11.66;76.70
65832;BME280;52593;42.648;23.332;2023-11-25T01:29:11;92153.09;;;11.50;80.99
65832;BME280;52593;42.648;23.332;2023-11-25T01:31:36;92153.06;;;11.45;82.60
65832;BME280;52593;42.648;23.332;2023-11-25T01:34:02;92162.00;;;11.33;82.81
65832;BME280;52593;42.648;23.332;2023-11-25T01:36:28;92183.44;;;11.33;83.30
65832;BME280;52593;42.648;23.332;2023-11-25T01:38:53;92182.19;;;11.41;85.14
65832;BME280;52593;42.648;23.332;2023-11-25T01:41:19;92162.06;;;11.38;86.63
65832;BME280;52593;42.648;23.332;2023-11-25T01:43:45;92172.25;;;11.02;87.62
65832;BME280;52593;42.648;23.332;2023-11-25T01:46:11;92161.66;;;10.91;88.00
65832;BME280;52593;42.648;23.332;2023-11-25T01:48:41;92160.75;;;10.85;89.79
65832;BME280;52593;42.648;23.332;2023-11-25T01:51:09;92161.50;;;10.63;91.41
65832;BME280;52593;42.648;23.332;2023-11-25T01:53:36;92163.31;;;10.46;90.98
65832;BME280;52593;42.648;23.332;2023-11-25T01:56:04;92169.25;;;10.19;91.14
65832;BME280;52593;42.648;23.332;2023-11-25T01:58:30;92156.53;;;10.09;92.82
65832;BME280;52593;42.648;23.332;2023-11-25T02:00:57;92147.72;;;9.68;94.01
65832;BME280;52593;42.648;23.332;2023-11-25T02:03:23;92143.50;;;9.43;95.94
65832;BME280;52593;42.648;23.332;2023-11-25T02:05:48;92143.75;;;9.30;98.90
65832;BME280;52593;42.648;23.332;2023-11-25T02:08:14;92145.97;;;9.21;99.93
65832;BME280;52593;42.648;23.332;2023-11-25T02:10:39;92143.91;;;9.23;100.00
65832;BME280;52593;42.648;23.332;2023-11-25T02:13:05;92163.00;;;9.20;100.00
65832;BME280;52593;42.648;23.332;2023-11-25T02:15:38;92152.94;;;9.22;100.00
65832;BME280;52593;42.648;23.332;2023-11-25T02:18:06;92151.44;;;9.15;100.00
65832;BME280;52593;42.648;23.332;2023-11-25T02:20:36;92154.81;;;9.10;100.00
65832;BME280;52593;42.648;23.332;2023-11-25T02:23:04;92154.09;;;9.03;100.00
65832;BME280;52593;42.648;23.332;2023-11-25T02:25:30;92159.09;;;8.99;100.00
65832;BME280;52593;42.648;23.332;2023-11-25T02:27:55;92161.88;;;8.69;100.00
65832;BME280;52593;42.648;23.332;2023-11-25T02:30:22;92151.19;;;8.57;100.00
65832;BME280;52593;42.648;23.332;2023-11-25T02:32:52;92158.06;;;8.34;100.00
65832;BME280;52593;42.648;23.332;2023-11-25T02:35:18;92159.94;;;8.34;100.00
65832;BME280;52593;42.648;23.332;2023-11-25T02:37:44;92159.00;;;8.40;100.00
65832;BME280;52593;42.648;23.332;2023-11-25T02:40:14;92162.72;;;8.39;100.00
65832;BME280;52593;42.648;23.332;2023-11-25T02:42:43;92156.09;;;8.30;100.00
65832;BME280;52593;42.648;23.332;2023-11-25T02:45:17;92160.13;;;8.20;100.00
65832;BME280;52593;42.648;23.332;2023-11-25T02:47:48;92150.19;;;8.28;100.00
65832;BME280;52593;42.648;23.332;2023-11-25T02:50:15;92159.44;;;8.13;100.00
65832;BME280;52593;42.648;23.332;2023-11-25T02:52:41;92161.50;;;7.81;100.00
65832;BME280;52593;42.648;23.332;2023-11-25T02:55:07;92165.19;;;7.49;100.00
65832;BME280;52593;42.648;23.332;2023-11-25T02:57:37;92165.31;;;7.18;100.00
65832;BME280;52593;42.648;23.332;2023-11-25T03:00:05;92169.31;;;7.08;100.00
65832;BME280;52593;42.648;23.332;2023-11-25T03:02:36;92169.59;;;6.82;100.00
65832;BME280;52593;42.648;23.332;2023-11-25T03:05:01;92173.81;;;6.64;100.00
65832;BME280;52593;42.648;23.332;2023-11-25T03:07:27;92170.91;;;6.47;100.00
65832;BME280;52593;42.648;23.332;2023-11-25T03:09:55;92175.28;;;6.35;100.00
65832;BME280;52593;42.648;23.332;2023-11-25T03:12:21;92177.09;;;6.41;100.00
65832;BME280;52593;42.648;23.332;2023-11-25T03:14:47;92161.53;;;6.19;100.00
65832;BME280;52593;42.648;23.332;2023-11-25T03:17:13;92159.34;;;6.10;100.00
65832;BME280;52593;42.648;23.332;2023-11-25T03:19:38;92166.09;;;6.05;100.00
65832;BME280;52593;42.648;23.332;2023-11-25T03:22:04;92165.81;;;6.20;100.00
65832;BME280;52593;42.648;23.332;2023-11-25T03:24:29;92163.19;;;6.14;100.00
65832;BME280;52593;42.648;23.332;2023-11-25T03:26:55;92146.50;;;6.06;100.00
65832;BME280;52593;42.648;23.332;2023-11-25T03:29:23;92155.22;;;6.14;100.00
65832;BME280;52593;42.648;23.332;2023-11-25T03:31:50;92163.63;;;6.11;100.00
65832;BME280;52593;42.648;23.332;2023-11-25T03:34:17;92163.03;;;6.09;100.00
65832;BME280;52593;42.648;23.332;2023-11-25T03:36:43;92159.94;;;6.12;100.00
65832;BME280;52593;42.648;23.332;2023-11-25T03:39:08;92159.34;;;6.10;100.00
65832;BME280;52593;42.648;23.332;2023-11-25T03:41:35;92157.38;;;5.92;100.00
65832;BME280;52593;42.648;23.332;2023-11-25T03:44:01;92158.47;;;5.84;100.00
65832;BME280;52593;42.648;23.332;2023-11-25T03:46:27;92162.72;;;5.85;100.00
65832;BME280;52593;42.648;23.332;2023-11-25T03:48:55;92163.56;;;5.85;100.00
65832;BME280;52593;42.648;23.332;2023-11-25T03:51:20;92155.75;;;5.97;100.00
65832;BME280;52593;42.648;23.332;2023-11-25T03:53:46;92154.09;;;5.96;100.00
65832;BME280;52593;42.648;23.332;2023-11-25T03:56:11;92150.56;;;6.09;100.00
65832;BME280;52593;42.648;23.332;2023-11-25T03:58:39;92139.63;;;5.92;100.00
65832;BME280;52593;42.648;23.332;2023-11-25T04:01:05;92139.25;;;5.82;100.00
65832;BME280;52593;42.648;23.332;2023-11-25T04:03:30;92152.97;;;5.79;100.00
65832;BME280;52593;42.648;23.332;2023-11-25T04:05:55;92147.56;;;5.60;100.00
65832;BME280;52593;42.648;23.332;2023-11-25T04:08:22;92143.53;;;5.51;100.00
65832;BME280;52593;42.648;23.332;2023-11-25T04:10:49;92137.66;;;5.42;100.00
65832;BME280;52593;42.648;23.332;2023-11-25T04:13:16;92138.72;;;5.34;100.00
65832;BME280;52593;42.648;23.332;2023-11-25T04:15:41;92153.81;;;5.34;100.00
65832;BME280;52593;42.648;23.332;2023-11-25T04:18:07;92146.91;;;5.26;100.00
65832;BME280;52593;42.648;23.332;2023-11-25T04:20:32;92145.94;;;5.14;100.00
65832;BME280;52593;42.648;23.332;2023-11-25T04:22:59;92146.53;;;5.16;100.00
65832;BME280;52593;42.648;23.332;2023-11-25T04:25:31;92149.84;;;5.05;100.00
65832;BME280;52593;42.648;23.332;2023-11-25T04:27:57;92150.44;;;5.07;100.00
65832;BME280;52593;42.648;23.332;2023-11-25T04:30:23;92141.72;;;4.99;100.00
65832;BME280;52593;42.648;23.332;2023-11-25T04:32:49;92155.16;;;4.98;100.00
65832;BME280;52593;42.648;23.332;2023-11-25T04:35:17;92151.94;;;4.89;100.00
65832;BME280;52593;42.648;23.332;2023-11-25T04:37:43;92152.78;;;4.70;100.00
65832;BME280;52593;42.648;23.332;2023-11-25T04:40:13;92156.88;;;4.52;100.00
65832;BME280;52593;42.648;23.332;2023-11-25T04:42:42;92158.72;;;4.58;100.00
65832;BME280;52593;42.648;23.332;2023-11-25T04:45:09;92170.94;;;4.53;100.00
65832;BME280;52593;42.648;23.332;2023-11-25T04:47:41;92163.19;;;4.64;100.00
65832;BME280;52593;42.648;23.332;2023-11-25T04:50:09;92147.94;;;4.40;100.00
65832;BME280;52593;42.648;23.332;2023-11-25T04:52:35;92148.75;;;4.40;100.00
65832;BME280;52593;42.648;23.332;2023-11-25T04:55:01;92159.53;;;4.45;100.00
65832;BME280;52593;42.648;23.332;2023-11-25T04:57:28;92159.75;;;4.37;100.00
65832;BME280;52593;42.648;23.332;2023-11-25T04:59:54;92149.78;;;4.33;100.00
65832;BME280;52593;42.648;23.332;2023-11-25T05:02:19;92158.13;;;4.29;100.00
65832;BME280;52593;42.648;23.332;2023-11-25T05:04:46;92166.28;;;4.21;100.00
65832;BME280;52593;42.648;23.332;2023-11-25T05:07:11;92180.91;;;4.24;100.00
65832;BME280;52593;42.648;23.332;2023-11-25T05:09:37;92189.06;;;4.16;100.00
65832;BME280;52593;42.648;23.332;2023-11-25T05:12:07;92180.72;;;4.12;100.00
65832;BME280;52593;42.648;23.332;2023-11-25T05:14:33;92175.22;;;4.07;100.00
65832;BME280;52593;42.648;23.332;2023-11-25T05:16:59;92175.41;;;3.99;100.00
65832;BME280;52593;42.648;23.332;2023-11-25T05:19:25;92199.00;;;3.93;100.00
65832;BME280;52593;42.648;23.332;2023-11-25T05:21:52;92182.50;;;3.78;100.00
65832;BME280;52593;42.648;23.332;2023-11-25T05:24:17;92178.44;;;3.75;100.00
65832;BME280;52593;42.648;23.332;2023-11-25T05:26:43;92185.38;;;3.83;100.00
65832;BME280;52593;42.648;23.332;2023-11-25T05:29:09;92190.44;;;3.71;100.00
65832;BME280;52593;42.648;23.332;2023-11-25T05:31:34;92211.97;;;3.62;100.00
65832;BME280;52593;42.648;23.332;2023-11-25T05:34:03;92197.31;;;3.52;100.00
65832;BME280;52593;42.648;23.332;2023-11-25T05:36:32;92214.97;;;3.52;100.00
65832;BME280;52593;42.648;23.332;2023-11-25T05:38:58;92212.66;;;3.29;100.00
65832;BME280;52593;42.648;23.332;2023-11-25T05:41:26;92224.00;;;3.22;100.00
65832;BME280;52593;42.648;23.332;2023-11-25T05:43:53;92223.56;;;3.12;100.00
65832;BME280;52593;42.648;23.332;2023-11-25T05:46:22;92233.28;;;3.05;100.00
65832;BME280;52593;42.648;23.332;2023-11-25T05:48:48;92242.00;;;2.99;100.00
65832;BME280;52593;42.648;23.332;2023-11-25T05:51:14;92247.66;;;2.96;100.00
65832;BME280;52593;42.648;23.332;2023-11-25T05:53:39;92252.06;;;2.82;100.00
65832;BME280;52593;42.648;23.332;2023-11-25T05:56:05;92268.41;;;2.71;100.00
65832;BME280;52593;42.648;23.332;2023-11-25T05:58:31;92279.72;;;2.36;100.00
65832;BME280;52593;42.648;23.332;2023-11-25T06:00:56;92275.44;;;2.13;100.00
65832;BME280;52593;42.648;23.332;2023-11-25T06:03:22;92287.31;;;1.81;100.00
65832;BME280;52593;42.648;23.332;2023-11-25T06:05:48;92282.06;;;1.66;100.00
65832;BME280;52593;42.648;23.332;2023-11-25T06:08:14;92279.72;;;1.56;100.00
65832;BME280;52593;42.648;23.332;2023-11-25T06:10:39;92303.28;;;1.43;100.00
65832;BME280;52593;42.648;23.332;2023-11-25T06:13:05;92316.56;;;1.35;100.00
65832;BME280;52593;42.648;23.332;2023-11-25T06:15:31;92324.72;;;1.40;100.00
65832;BME280;52593;42.648;23.332;2023-11-25T06:17:56;92319.38;;;1.33;100.00
65832;BME280;52593;42.648;23.332;2023-11-25T06:20:21;92329.75;;;1.35;100.00
65832;BME280;52593;42.648;23.332;2023-11-25T06:22:52;92331.09;;;1.16;100.00
65832;BME280;52593;42.648;23.332;2023-11-25T06:25:18;92324.91;;;1.09;100.00
65832;BME280;52593;42.648;23.332;2023-11-25T06:27:43;92331.00;;;1.09;100.00
65832;BME280;52593;42.648;23.332;2023-11-25T06:30:09;92351.06;;;1.10;100.00
65832;BME280;52593;42.648;23.332;2023-11-25T06:32:34;92350.16;;;1.18;100.00
65832;BME280;52593;42.648;23.332;2023-11-25T06:35:00;92347.34;;;1.04;100.00
65832;BME280;52593;42.648;23.332;2023-11-25T06:37:26;92339.88;;;0.93;100.00
65832;BME280;52593;42.648;23.332;2023-11-25T06:39:51;92358.41;;;1.00;100.00
65832;BME280;52593;42.648;23.332;2023-11-25T06:42:17;92362.03;;;0.99;100.00
65832;BME280;52593;42.648;23.332;2023-11-25T06:44:42;92362.75;;;0.93;100.00
65832;BME280;52593;42.648;23.332;2023-11-25T06:47:12;92364.75;;;0.91;100.00
65832;BME280;52593;42.648;23.332;2023-11-25T06:49:38;92373.56;;;0.83;100.00
65832;BME280;52593;42.648;23.332;2023-11-25T06:52:04;92372.09;;;0.80;100.00
65832;BME280;52593;42.648;23.332;2023-11-25T06:54:29;92353.22;;;0.77;100.00
65832;BME280;52593;42.648;23.332;2023-11-25T06:56:56;92360.13;;;0.93;100.00
65832;BME280;52593;42.648;23.332;2023-11-25T06:59:21;92356.06;;;1.05;100.00
65832;BME280;52593;42.648;23.332;2023-11-25T07:01:47;92356.69;;;1.07;100.00
65832;BME280;52593;42.648;23.332;2023-11-25T07:04:13;92375.06;;;1.15;100.00
65832;BME280;52593;42.648;23.332;2023-11-25T07:06:39;92378.69;;;1.14;100.00
65832;BME280;52593;42.648;23.332;2023-11-25T07:09:05;92367.41;;;1.20;100.00
65832;BME280;52593;42.648;23.332;2023-11-25T07:11:31;92370.50;;;1.24;100.00
65832;BME280;52593;42.648;23.332;2023-11-25T07:13:58;92369.50;;;1.25;100.00
65832;BME280;52593;42.648;23.332;2023-11-25T07:16:24;92370.25;;;1.34;100.00
65832;BME280;52593;42.648;23.332;2023-11-25T07:18:49;92368.34;;;1.42;100.00
65832;BME280;52593;42.648;23.332;2023-11-25T07:21:15;92348.44;;;1.40;100.00
65832;BME280;52593;42.648;23.332;2023-11-25T07:23:41;92346.63;;;1.55;100.00
65832;BME280;52593;42.648;23.332;2023-11-25T07:26:09;92341.78;;;1.59;100.00
65832;BME280;52593;42.648;23.332;2023-11-25T07:28:37;92341.97;;;1.57;100.00
65832;BME280;52593;42.648;23.332;2023-11-25T07:31:03;92331.16;;;1.67;100.00
65832;BME280;52593;42.648;23.332;2023-11-25T07:33:30;92334.22;;;1.71;100.00
65832;BME280;52593;42.648;23.332;2023-11-25T07:35:55;92333.31;;;1.78;100.00
65832;BME280;52593;42.648;23.332;2023-11-25T07:38:21;92333.56;;;1.84;100.00
65832;BME280;52593;42.648;23.332;2023-11-25T07:40:47;92332.94;;;1.82;100.00
65832;BME280;52593;42.648;23.332;2023-11-25T07:43:12;92337.06;;;1.69;100.00
65832;BME280;52593;42.648;23.332;2023-11-25T07:45:41;92325.75;;;1.75;100.00
65832;BME280;52593;42.648;23.332;2023-11-25T07:48:06;92334.78;;;1.66;100.00
65832;BME280;52593;42.648;23.332;2023-11-25T07:50:32;92331.94;;;1.83;100.00
65832;BME280;52593;42.648;23.332;2023-11-25T07:52:58;92315.16;;;1.69;100.00
65832;BME280;52593;42.648;23.332;2023-11-25T07:55:24;92311.06;;;1.66;100.00
65832;BME280;52593;42.648;23.332;2023-11-25T07:57:49;92322.31;;;1.75;100.00
65832;BME280;52593;42.648;23.332;2023-11-25T08:00:15;92328.38;;;1.90;100.00
65832;BME280;52593;42.648;23.332;2023-11-25T08:02:45;92328.63;;;1.95;100.00
65832;BME280;52593;42.648;23.332;2023-11-25T08:05:12;92320.00;;;1.87;100.00
65832;BME280;52593;42.648;23.332;2023-11-25T08:07:56;92317.84;;;1.75;100.00
65832;BME280;52593;42.648;23.332;2023-11-25T08:10:23;92314.31;;;1.68;100.00
65832;BME280;52593;42.648;23.332;2023-11-25T08:12:49;92318.78;;;1.53;100.00
65832;BME280;52593;42.648;23.332;2023-11-25T08:15:15;92314.06;;;1.48;100.00
65832;BME280;52593;42.648;23.332;2023-11-25T08:17:42;92315.78;;;1.56;100.00
65832;BME280;52593;42.648;23.332;2023-11-25T08:20:09;92325.22;;;1.65;100.00
65832;BME280;52593;42.648;23.332;2023-11-25T08:22:36;92330.00;;;1.91;100.00
65832;BME280;52593;42.648;23.332;2023-11-25T08:25:06;92330.06;;;1.62;100.00
65832;BME280;52593;42.648;23.332;2023-11-25T08:27:36;92330.63;;;1.57;100.00
65832;BME280;52593;42.648;23.332;2023-11-25T08:30:03;92329.34;;;1.53;100.00
65832;BME280;52593;42.648;23.332;2023-11-25T08:32:32;92321.25;;;2.27;100.00
65832;BME280;52593;42.648;23.332;2023-11-25T08:34:58;92321.25;;;2.06;100.00
65832;BME280;52593;42.648;23.332;2023-11-25T08:37:25;92328.38;;;1.90;100.00
65832;BME280;52593;42.648;23.332;2023-11-25T08:39:54;92330.75;;;1.85;100.00
65832;BME280;52593;42.648;23.332;2023-11-25T08:42:20;92332.94;;;1.82;100.00
65832;BME280;52593;42.648;23.332;2023-11-25T08:44:46;92336.84;;;1.86;100.00
65832;BME280;52593;42.648;23.332;2023-11-25T08:47:13;92340.97;;;1.73;100.00
65832;BME280;52593;42.648;23.332;2023-11-25T08:49:39;92331.47;;;1.79;100.00
65832;BME280;52593;42.648;23.332;2023-11-25T08:52:04;92335.69;;;1.73;100.00
65832;BME280;52593;42.648;23.332;2023-11-25T08:54:30;92329.03;;;1.77;100.00
65832;BME280;52593;42.648;23.332;2023-11-25T08:57:02;92332.16;;;1.66;100.00
65832;BME280;52593;42.648;23.332;2023-11-25T08:59:28;92334.47;;;1.39;100.00
65832;BME280;52593;42.648;23.332;2023-11-25T09:01:54;92329.16;;;1.54;100.00
65832;BME280;52593;42.648;23.332;2023-11-25T09:04:23;92331.97;;;1.53;100.00
65832;BME280;52593;42.648;23.332;2023-11-25T09:06:51;92324.53;;;1.41;100.00
65832;BME280;52593;42.648;23.332;2023-11-25T09:09:19;92320.44;;;1.39;100.00
65832;BME280;52593;42.648;23.332;2023-11-25T09:11:46;92323.09;;;1.24;100.00
65832;BME280;52593;42.648;23.332;2023-11-25T09:14:13;92316.63;;;1.12;100.00
65832;BME280;52593;42.648;23.332;2023-11-25T09:16:42;92311.53;;;1.10;100.00
65832;BME280;52593;42.648;23.332;2023-11-25T09:19:08;92312.38;;;1.11;100.00
65832;BME280;52593;42.648;23.332;2023-11-25T09:21:33;92322.38;;;1.00;100.00
65832;BME280;52593;42.648;23.332;2023-11-25T09:23:59;92328.00;;;1.12;100.00
65832;BME280;52593;42.648;23.332;2023-11-25T09:26:25;92318.09;;;0.99;100.00
65832;BME280;52593;42.648;23.332;2023-11-25T09:28:51;92312.44;;;1.02;100.00
65832;BME280;52593;42.648;23.332;2023-11-25T09:31:18;92323.16;;;1.01;100.00
65832;BME280;52593;42.648;23.332;2023-11-25T09:33:43;92316.38;;;1.06;100.00
65832;BME280;52593;42.648;23.332;2023-11-25T09:36:09;92316.28;;;1.00;100.00
65832;BME280;52593;42.648;23.332;2023-11-25T09:38:35;92310.19;;;1.14;100.00
65832;BME280;52593;42.648;23.332;2023-11-25T09:41:01;92309.56;;;1.12;100.00
65832;BME280;52593;42.648;23.332;2023-11-25T09:43:26;92304.47;;;1.11;100.00
65832;BME280;52593;42.648;23.332;2023-11-25T09:45:52;92290.28;;;1.12;100.00
65832;BME280;52593;42.648;23.332;2023-11-25T09:48:19;92283.13;;;1.05;100.00
65832;BME280;52593;42.648;23.332;2023-11-25T09:50:44;92287.22;;;1.08;100.00
65832;BME280;52593;42.648;23.332;2023-11-25T09:53:22;92281.16;;;1.08;100.00
65832;BME280;52593;42.648;23.332;2023-11-25T09:56:03;92286.19;;;1.24;100.00
65832;BME280;52593;42.648;23.332;2023-11-25T09:58:33;92276.69;;;1.23;100.00
65832;BME280;52593;42.648;23.332;2023-11-25T10:01:00;92276.75;;;1.15;100.00
65832;BME280;52593;42.648;23.332;2023-11-25T10:03:28;92269.94;;;1.20;100.00
65832;BME280;52593;42.648;23.332;2023-11-25T10:05:57;92263.78;;;1.13;100.00
65832;BME280;52593;42.648;23.332;2023-11-25T10:08:23;92261.59;;;1.17;100.00
65832;BME280;52593;42.648;23.332;2023-11-25T10:11:21;92261.31;;;1.27;100.00
65832;BME280;52593;42.648;23.332;2023-11-25T10:13:48;92249.06;;;1.19;100.00
65832;BME280;52593;42.648;23.332;2023-11-25T10:16:25;92262.50;;;1.24;100.00
65832;BME280;52593;42.648;23.332;2023-11-25T10:18:52;92253.59;;;1.25;100.00
65832;BME280;52593;42.648;23.332;2023-11-25T10:21:17;92249.97;;;1.26;100.00
65832;BME280;52593;42.648;23.332;2023-11-25T10:23:44;92248.16;;;1.27;100.00
65832;BME280;52593;42.648;23.332;2023-11-25T10:26:09;92242.50;;;1.30;100.00
65832;BME280;52593;42.648;23.332;2023-11-25T10:28:35;92239.22;;;1.42;100.00
65832;BME280;52593;42.648;23.332;2023-11-25T10:31:03;92238.88;;;1.31;100.00
65832;BME280;52593;42.648;23.332;2023-11-25T10:33:33;92236.81;;;1.26;100.00
65832;BME280;52593;42.648;23.332;2023-11-25T10:35:59;92245.31;;;1.43;100.00
65832;BME280;52593;42.648;23.332;2023-11-25T10:38:26;92244.13;;;1.46;100.00
65832;BME280;52593;42.648;23.332;2023-11-25T10:41:03;92243.84;;;1.40;100.00
65832;BME280;52593;42.648;23.332;2023-11-25T10:43:30;92242.13;;;1.33;100.00
65832;BME280;52593;42.648;23.332;2023-11-25T10:46:09;92229.53;;;1.28;100.00
65832;BME280;52593;42.648;23.332;2023-11-25T10:48:38;92222.69;;;1.49;100.00
65832;BME280;52593;42.648;23.332;2023-11-25T10:51:07;92209.00;;;1.23;100.00
65832;BME280;52593;42.648;23.332;2023-11-25T10:53:37;92211.16;;;1.35;100.00
65832;BME280;52593;42.648;23.332;2023-11-25T10:56:04;92199.31;;;1.46;100.00
65832;BME280;52593;42.648;23.332;2023-11-25T10:58:30;92177.44;;;1.30;100.00
65832;BME280;52593;42.648;23.332;2023-11-25T11:00:57;92176.59;;;1.45;100.00
65832;BME280;52593;42.648;23.332;2023-11-25T11:06:29;92177.72;;;1.35;100.00
65832;BME280;52593;42.648;23.332;2023-11-25T11:08:59;92177.22;;;1.47;100.00
65832;BME280;52593;42.648;23.332;2023-11-25T11:11:35;92165.81;;;1.39;100.00
65832;BME280;52593;42.648;23.332;2023-11-25T11:14:13;92156.41;;;1.52;100.00
65832;BME280;52593;42.648;23.332;2023-11-25T11:19:07;92148.31;;;1.53;100.00
65832;BME280;52593;42.648;23.332;2023-11-25T11:21:36;92140.22;;;1.55;100.00
65832;BME280;52593;42.648;23.332;2023-11-25T11:24:03;92145.72;;;1.60;100.00
65832;BME280;52593;42.648;23.332;2023-11-25T11:26:48;92145.22;;;1.71;100.00
65832;BME280;52593;42.648;23.332;2023-11-25T11:32:07;92124.28;;;1.63;100.00
65832;BME280;52593;42.648;23.332;2023-11-25T11:34:34;92113.09;;;1.61;100.00
65832;BME280;52593;42.648;23.332;2023-11-25T11:37:01;92107.16;;;1.52;100.00
65832;BME280;52593;42.648;23.332;2023-11-25T11:39:43;92108.41;;;1.56;100.00
65832;BME280;52593;42.648;23.332;2023-11-25T11:45:03;92136.38;;;1.57;100.00
65832;BME280;52593;42.648;23.332;2023-11-25T11:47:47;92132.38;;;1.40;100.00
65832;BME280;52593;42.648;23.332;2023-11-25T11:50:17;92140.47;;;1.38;100.00
65832;BME280;52593;42.648;23.332;2023-11-25T11:52:46;92139.91;;;1.43;100.00
65832;BME280;52593;42.648;23.332;2023-11-25T12:00:54;92115.47;;;1.34;100.00
65832;BME280;52593;42.648;23.332;2023-11-25T12:03:32;92116.22;;;1.50;100.00
65832;BME280;52593;42.648;23.332;2023-11-25T12:05:59;92115.47;;;1.56;100.00
65832;BME280;52593;42.648;23.332;2023-11-25T12:08:25;92106.56;;;1.57;100.00
65832;BME280;52593;42.648;23.332;2023-11-25T12:10:51;92104.47;;;1.46;100.00
65832;BME280;52593;42.648;23.332;2023-11-25T12:13:32;92104.00;;;1.42;100.00
65832;BME280;52593;42.648;23.332;2023-11-25T12:15:58;92105.59;;;1.36;100.00
65832;BME280;52593;42.648;23.332;2023-11-25T12:18:25;92099.53;;;1.21;100.00
65832;BME280;52593;42.648;23.332;2023-11-25T12:20:51;92100.06;;;1.31;100.00
65832;BME280;52593;42.648;23.332;2023-11-25T12:23:17;92112.97;;;1.26;100.00
65832;BME280;52593;42.648;23.332;2023-11-25T12:25:42;92101.03;;;1.30;100.00
65832;BME280;52593;42.648;23.332;2023-11-25T12:28:10;92093.78;;;1.11;100.00
65832;BME280;52593;42.648;23.332;2023-11-25T12:30:37;92082.09;;;0.98;100.00
65832;BME280;52593;42.648;23.332;2023-11-25T12:33:03;92084.78;;;1.05;100.00
65832;BME280;52593;42.648;23.332;2023-11-25T12:35:34;92081.22;;;1.13;100.00
65832;BME280;52593;42.648;23.332;2023-11-25T12:38:01;92078.84;;;1.18;100.00
65832;BME280;52593;42.648;23.332;2023-11-25T12:40:28;92068.88;;;1.13;100.00
65832;BME280;52593;42.648;23.332;2023-11-25T12:42:54;92058.84;;;1.23;100.00
65832;BME280;52593;42.648;23.332;2023-11-25T12:45:38;92061.19;;;1.33;100.00
65832;BME280;52593;42.648;23.332;2023-11-25T12:48:05;92043.66;;;1.25;100.00
65832;BME280;52593;42.648;23.332;2023-11-25T12:50:58;92043.00;;;1.17;100.00
65832;BME280;52593;42.648;23.332;2023-11-25T12:53:24;92038.94;;;1.21;100.00
65832;BME280;52593;42.648;23.332;2023-11-25T12:55:49;92036.06;;;1.16;100.00
65832;BME280;52593;42.648;23.332;2023-11-25T12:58:17;92042.34;;;1.15;100.00
65832;BME280;52593;42.648;23.332;2023-11-25T13:00:56;92034.72;;;1.20;100.00
65832;BME280;52593;42.648;23.332;2023-11-25T13:03:31;92030.63;;;1.17;100.00
65832;BME280;52593;42.648;23.332;2023-11-25T13:06:01;92022.66;;;1.11;100.00
65832;BME280;52593;42.648;23.332;2023-11-25T13:08:28;92016.75;;;1.09;100.00